createdAt,value
2022-11-06T00:00:18.777Z,100724.41
2022-11-06T00:05:38.956Z,100713.81
2022-11-06T00:10:40.490Z,100701.25
2022-11-06T00:15:41.813Z,100697.34
2022-11-06T00:20:43.275Z,100690.78
2022-11-06T00:25:44.676Z,100691.97
2022-11-06T00:30:46.775Z,100689.59
2022-11-06T00:35:48.128Z,100682.38
2022-11-06T00:40:49.480Z,100676.19
2022-11-06T00:45:50.810Z,100679.38
2022-11-06T00:50:52.170Z,100675.34
2022-11-06T00:55:53.670Z,100683.25
2022-11-06T01:00:55.002Z,100673.88
2022-11-06T01:06:03.044Z,100668.66
2022-11-06T01:11:22.892Z,100675.34
2022-11-06T01:16:25.315Z,100690.13
2022-11-06T01:21:33.075Z,100682.06
2022-11-06T01:26:39.284Z,100682.75
2022-11-06T01:31:44.558Z,100684.22
2022-11-06T01:36:46.669Z,100674.59
2022-11-06T01:41:50.764Z,100672.25
2022-11-06T01:46:52.324Z,100677.91
2022-11-06T01:51:57.793Z,100674.72
2022-11-06T01:57:01.124Z,100674.72
2022-11-06T02:02:02.879Z,100648.91
2022-11-06T02:07:05.821Z,100659.44
2022-11-06T02:12:32.958Z,100651.00
2022-11-06T02:17:46.544Z,100656.34
2022-11-06T02:23:30.837Z,100641.88
2022-11-06T02:28:39.080Z,100623.63
2022-11-06T02:33:48.957Z,100629.38
2022-11-06T02:38:57.257Z,100618.00
2022-11-06T02:44:00.037Z,100615.19
2022-11-06T02:49:07.660Z,100623.91
2022-11-06T02:54:11.521Z,100620.53
2022-11-06T02:59:29.208Z,100621.69
2022-11-06T03:04:43.821Z,100611.44
2022-11-06T03:09:45.625Z,100602.75
2022-11-06T03:14:57.007Z,100611.47
2022-11-06T03:20:23.398Z,100620.84
2022-11-06T03:25:43.350Z,100628.25
2022-11-06T03:30:50.712Z,100620.69
2022-11-06T03:35:58.926Z,100601.25
2022-11-06T03:41:06.920Z,100598.59
2022-11-06T03:46:15.505Z,100603.13
2022-11-06T03:51:25.282Z,100608.28
2022-11-06T03:56:59.843Z,100613.84
2022-11-06T04:02:02.945Z,100596.88
2022-11-06T04:07:13.104Z,100584.63
2022-11-06T04:12:38.861Z,100568.69
2022-11-06T04:17:41.744Z,100574.31
2022-11-06T04:22:59.751Z,100573.25
2022-11-06T04:28:48.887Z,100585.47
2022-11-06T04:33:59.034Z,100579.09
2022-11-06T04:39:12.554Z,100594.81
2022-11-06T04:44:23.878Z,100594.16
2022-11-06T04:49:29.042Z,100594.81
2022-11-06T04:54:32.110Z,100598.13
2022-11-06T04:59:36.545Z,100579.00
2022-11-06T05:04:37.901Z,100586.63
2022-11-06T05:09:39.259Z,100595.16
2022-11-06T05:14:40.628Z,100606.72
2022-11-06T05:19:41.964Z,100598.56
2022-11-06T05:24:43.331Z,100606.97
2022-11-06T05:29:45.181Z,100595.78
2022-11-06T05:34:46.967Z,100589.72
2022-11-06T05:39:48.324Z,100576.31
2022-11-06T05:44:49.732Z,100581.31
2022-11-06T05:49:51.076Z,100574.94
2022-11-06T05:54:52.550Z,100569.56
2022-11-06T05:59:53.907Z,100572.03
2022-11-06T06:04:55.250Z,100568.31
2022-11-06T06:09:56.732Z,100554.34
2022-11-06T06:14:58.086Z,100550.84
2022-11-06T06:19:59.527Z,100536.59
2022-11-06T06:25:01.598Z,100522.56
2022-11-06T06:30:03.345Z,100536.63
2022-11-06T06:35:05.296Z,100535.91
2022-11-06T06:40:07.130Z,100506.75
2022-11-06T06:45:08.834Z,100499.38
2022-11-06T06:50:10.224Z,100499.56
2022-11-06T06:55:11.597Z,100497.66
2022-11-06T07:00:13.256Z,100499.53
2022-11-06T07:05:14.630Z,100497.13
2022-11-06T07:10:16.688Z,100497.00
2022-11-06T07:15:18.095Z,100501.34
2022-11-06T07:20:19.512Z,100500.50
2022-11-06T07:25:20.878Z,100504.41
2022-11-06T07:30:22.238Z,100490.75
2022-11-06T07:35:23.596Z,100492.47
2022-11-06T07:40:25.032Z,100493.03
2022-11-06T07:45:26.377Z,100488.88
2022-11-06T07:50:27.880Z,100493.06
2022-11-06T07:55:29.736Z,100481.41
2022-11-06T08:00:31.052Z,100480.91
2022-11-06T08:05:32.396Z,100478.44
2022-11-06T08:10:33.852Z,100484.81
2022-11-06T08:15:38.069Z,100490.72
2022-11-06T08:20:40.248Z,100496.78
2022-11-06T08:25:41.661Z,100488.28
2022-11-06T08:30:43.020Z,100485.59
2022-11-06T08:35:44.574Z,100480.28
2022-11-06T08:40:50.723Z,100489.03
2022-11-06T08:45:54.772Z,100477.97
2022-11-06T08:50:56.334Z,100477.16
2022-11-06T08:55:57.721Z,100466.75
2022-11-06T09:00:59.156Z,100459.84
2022-11-06T09:06:00.781Z,100449.75
2022-11-06T09:11:07.312Z,100443.03
2022-11-06T09:16:14.279Z,100443.16
2022-11-06T09:21:17.088Z,100443.16
2022-11-06T09:26:18.606Z,100429.69
2022-11-06T09:31:19.978Z,100419.41
2022-11-06T09:36:21.409Z,100412.19
2022-11-06T09:41:50.473Z,100401.50
2022-11-06T09:46:53.686Z,100381.31
2022-11-06T09:52:38.441Z,100377.72
2022-11-06T09:57:55.948Z,100370.16
2022-11-06T10:03:05.483Z,100358.84
2022-11-06T10:08:15.522Z,100357.22
2022-11-06T10:13:38.073Z,100344.59
2022-11-06T10:18:56.558Z,100337.47
2022-11-06T10:24:02.329Z,100322.81
2022-11-06T10:29:18.676Z,100314.56
2022-11-06T10:34:25.157Z,100303.69
2022-11-06T10:39:32.637Z,100304.63
2022-11-06T10:44:38.026Z,100295.72
2022-11-06T10:49:48.083Z,100288.06
2022-11-06T10:55:05.349Z,100292.78
2022-11-06T11:00:12.500Z,100282.81
2022-11-06T11:05:17.050Z,100282.69
2022-11-06T11:10:24.436Z,100257.81
2022-11-06T11:15:26.966Z,100248.00
2022-11-06T11:20:31.168Z,100237.75
2022-11-06T11:25:32.671Z,100229.91
2022-11-06T11:30:34.091Z,100212.16
2022-11-06T11:35:38.350Z,100212.22
2022-11-06T11:40:40.236Z,100204.44
2022-11-06T11:45:42.668Z,100195.53
2022-11-06T11:50:44.164Z,100171.41
2022-11-06T11:55:49.172Z,100154.16
2022-11-06T12:00:54.568Z,100136.38
2022-11-06T12:06:12.961Z,100117.94
2022-11-06T12:11:19.714Z,100099.72
2022-11-06T12:16:21.308Z,100092.44
2022-11-06T12:21:48.840Z,100070.03
2022-11-06T12:26:59.015Z,100050.91
2022-11-06T12:32:21.840Z,100055.09
2022-11-06T12:37:37.110Z,100043.63
2022-11-06T12:42:41.450Z,100031.59
2022-11-06T12:47:57.485Z,100015.97
2022-11-06T12:53:03.441Z,100017.00
2022-11-06T12:58:29.022Z,100001.63
2022-11-06T13:03:59.691Z,99993.06
2022-11-06T13:09:06.234Z,99984.25
2022-11-06T13:14:29.673Z,99983.66
2022-11-06T13:19:47.589Z,99974.03
2022-11-06T13:25:20.717Z,99967.38
2022-11-06T13:30:24.485Z,99960.28
2022-11-06T13:35:27.060Z,99960.47
2022-11-06T13:40:37.115Z,99954.81
2022-11-06T13:46:07.563Z,99953.78
2022-11-06T13:51:42.016Z,99945.59
2022-11-06T13:57:24.546Z,99943.50
2022-11-06T14:02:37.044Z,99932.47
2022-11-06T14:07:41.285Z,99936.25
2022-11-06T14:12:46.887Z,99927.72
2022-11-06T14:18:01.620Z,99914.06
2022-11-06T14:23:29.074Z,99928.03
2022-11-06T14:28:33.072Z,99916.19
2022-11-06T14:33:58.361Z,99912.66
2022-11-06T14:38:59.888Z,99917.91
2022-11-06T14:44:18.855Z,99907.97
2022-11-06T14:49:26.541Z,99912.38
2022-11-06T14:54:28.708Z,99908.63
2022-11-06T14:59:34.956Z,99925.91
2022-11-06T15:04:44.198Z,99924.25
2022-11-06T15:09:47.516Z,99919.25
2022-11-06T15:14:48.854Z,99925.72
2022-11-06T15:20:06.069Z,99917.22
2022-11-06T15:25:10.390Z,99916.81
2022-11-06T15:30:17.664Z,99913.28
2022-11-06T15:35:23.611Z,99888.97
2022-11-06T15:40:29.206Z,99888.16
2022-11-06T15:45:30.604Z,99898.13
2022-11-06T15:50:34.156Z,99882.75
2022-11-06T15:55:38.361Z,99881.09
2022-11-06T16:00:41.448Z,99893.16
2022-11-06T16:05:43.116Z,99885.44
2022-11-06T16:10:48.161Z,99883.19
2022-11-06T16:15:58.900Z,99873.19
2022-11-06T16:21:08.745Z,99882.53
2022-11-06T16:26:22.840Z,99882.53
2022-11-06T16:31:28.129Z,99896.16
2022-11-06T16:36:31.656Z,99895.75
2022-11-06T16:41:59.661Z,99878.31
2022-11-06T16:47:09.889Z,99873.72
2022-11-06T16:52:32.646Z,99884.31
2022-11-06T16:57:36.926Z,99876.34
2022-11-06T17:02:38.739Z,99874.31
2022-11-06T17:07:41.257Z,99873.28
2022-11-06T17:12:42.646Z,99885.72
2022-11-06T17:17:43.973Z,99896.25
2022-11-06T17:22:46.075Z,99903.94
2022-11-06T17:27:47.418Z,99917.44
2022-11-06T17:32:48.759Z,99897.09
2022-11-06T17:37:50.130Z,99902.72
2022-11-06T17:42:51.533Z,99893.94
2022-11-06T17:47:52.896Z,99860.28
2022-11-06T17:52:54.369Z,99854.19
2022-11-06T17:57:55.697Z,99848.72
2022-11-06T18:03:02.309Z,99847.44
2022-11-06T18:08:04.002Z,99844.69
2022-11-06T18:13:06.969Z,99844.03
2022-11-06T18:18:08.326Z,99850.06
2022-11-06T18:23:09.657Z,99829.47
2022-11-06T18:28:11.027Z,99808.53
2022-11-06T18:33:12.382Z,99817.59
2022-11-06T18:38:14.961Z,99834.75
2022-11-06T18:43:16.515Z,99862.41
2022-11-06T18:48:21.248Z,99887.28
2022-11-06T18:53:23.121Z,99897.59
2022-11-06T18:58:24.576Z,99885.88
2022-11-06T19:03:25.939Z,99872.06
2022-11-06T19:08:27.283Z,99858.66
2022-11-06T19:13:28.686Z,99868.44
2022-11-06T19:18:31.261Z,99881.75
2022-11-06T19:23:32.669Z,99853.91
2022-11-06T19:28:36.003Z,99860.56
2022-11-06T19:33:37.556Z,99871.25
2022-11-06T19:38:39.249Z,99869.19
2022-11-06T19:43:40.677Z,99877.44
2022-11-06T19:48:42.096Z,99871.78
2022-11-06T19:53:43.607Z,99866.72
2022-11-06T19:58:45.056Z,99878.28
2022-11-06T20:03:46.876Z,99878.09
2022-11-06T20:08:50.158Z,99875.50
2022-11-06T20:13:51.609Z,99893.34
2022-11-06T20:18:57.860Z,99888.00
2022-11-06T20:23:59.298Z,99882.78
2022-11-06T20:29:00.750Z,99889.88
2022-11-06T20:34:02.179Z,99895.63
2022-11-06T20:39:03.918Z,99911.53
2022-11-06T20:44:05.377Z,99924.81
2022-11-06T20:49:06.898Z,99931.00
2022-11-06T20:54:08.403Z,99921.56
2022-11-06T20:59:10.236Z,99932.59
2022-11-06T21:04:12.063Z,99928.53
2022-11-06T21:09:13.428Z,99930.69
2022-11-06T21:14:14.873Z,99934.34
2022-11-06T21:19:16.263Z,99952.75
2022-11-06T21:24:17.738Z,99949.00
2022-11-06T21:29:19.068Z,99959.59
2022-11-06T21:34:20.487Z,99961.13
2022-11-06T21:39:22.242Z,99963.63
2022-11-06T21:44:23.770Z,99964.66
2022-11-06T21:49:25.147Z,99957.63
2022-11-06T21:54:45.290Z,99962.56
2022-11-06T21:59:46.633Z,99967.75
2022-11-06T22:04:47.966Z,99960.72
2022-11-06T22:09:49.316Z,99971.50
2022-11-06T22:14:50.654Z,99982.09
2022-11-06T22:19:51.993Z,99971.50
2022-11-06T22:24:53.398Z,99983.31
2022-11-06T22:29:54.753Z,99988.06
2022-11-06T22:34:56.105Z,99995.50
2022-11-06T22:39:57.437Z,99999.66
2022-11-06T22:44:58.766Z,100000.72
2022-11-06T22:50:00.497Z,99993.06
2022-11-06T22:55:01.828Z,100004.59
2022-11-06T23:00:05.280Z,100010.31
2022-11-06T23:05:07.311Z,100014.81
2022-11-06T23:10:09.382Z,100028.97
2022-11-06T23:15:10.823Z,100035.16
2022-11-06T23:20:12.154Z,100031.31
2022-11-06T23:25:14.722Z,100029.16
2022-11-06T23:30:16.081Z,100031.94
2022-11-06T23:35:19.482Z,100029.69
2022-11-06T23:40:22.496Z,100031.16
2022-11-06T23:45:42.288Z,100030.72
2022-11-06T23:50:47.034Z,100036.34
2022-11-06T23:55:48.551Z,100044.88
